Terminal Aerodrome Forecast
Issued by NWS Upton, NY

Home | Current Version | Previous Version | Text Only | Print | Product List | Glossary On
Versions: 1 2 3 4 5 6 7 8 9 10 11 12 13 14 15 16 17 18 19 20 21 22 23
000
FTUS41 KOKX 260200 AAA
TAFBDR
TAF AMD
KBDR 260204Z 2602/2624 27010KT P6SM SKC
      TEMPO 2602/2603 27010G16KT
     FM260300 27005KT P6SM SKC
     FM261400 27009KT P6SM FEW020
     FM261800 25009KT P6SM FEW025
     FM262200 25005KT P6SM SKC=

USA.gov is the U.S. government's official web portal to all federal, state and local government web resources and services.